createdAt,value
2017-03-07T00:00:22.892Z,99.99
2017-03-07T00:01:31.874Z,99.99
2017-03-07T00:02:40.860Z,99.99
2017-03-07T00:03:49.828Z,99.99
2017-03-07T00:04:59.086Z,99.99
2017-03-07T00:06:08.056Z,99.99
2017-03-07T00:07:17.043Z,99.99
2017-03-07T00:08:26.015Z,99.99
2017-03-07T00:09:34.994Z,99.99
2017-03-07T00:10:44.292Z,99.99
2017-03-07T00:11:53.261Z,99.97
2017-03-07T00:13:02.235Z,99.49
2017-03-07T00:14:11.212Z,99.87
2017-03-07T00:15:20.202Z,99.99
2017-03-07T00:16:29.428Z,99.99
2017-03-07T00:17:38.410Z,99.99
2017-03-07T00:18:47.476Z,99.99
2017-03-07T00:19:56.457Z,99.99
2017-03-07T00:21:05.438Z,99.99
2017-03-07T00:22:14.803Z,99.99
2017-03-07T00:23:23.778Z,99.99
2017-03-07T00:24:32.754Z,99.99
2017-03-07T00:25:41.843Z,99.99
2017-03-07T00:26:50.829Z,99.99
2017-03-07T00:28:00.187Z,99.99
2017-03-07T00:29:09.282Z,99.99
2017-03-07T00:30:18.261Z,99.99
2017-03-07T00:31:27.350Z,99.99
2017-03-07T00:32:36.324Z,99.99
2017-03-07T00:33:45.608Z,99.99
2017-03-07T00:34:54.595Z,99.99
2017-03-07T00:36:03.683Z,99.99
2017-03-07T00:37:12.655Z,99.99
2017-03-07T00:38:21.811Z,99.99
2017-03-07T00:39:31.087Z,99.99
2017-03-07T00:40:40.062Z,99.99
2017-03-07T00:41:49.140Z,99.99
2017-03-07T00:42:58.141Z,99.99
2017-03-07T00:44:07.142Z,99.99
2017-03-07T00:45:16.364Z,99.99
2017-03-07T00:46:25.354Z,99.99
2017-03-07T00:47:34.350Z,99.99
2017-03-07T00:48:43.321Z,99.99
2017-03-07T00:49:52.301Z,99.99
2017-03-07T00:51:01.597Z,99.99
2017-03-07T00:52:10.574Z,99.99
2017-03-07T00:53:19.565Z,99.99
2017-03-07T00:54:28.555Z,99.99
2017-03-07T00:55:37.575Z,99.87
2017-03-07T00:56:46.870Z,99.58
2017-03-07T00:57:55.927Z,99.99
2017-03-07T00:59:04.920Z,99.99
2017-03-07T01:00:13.890Z,99.99
2017-03-07T01:01:22.869Z,99.99
2017-03-07T01:02:32.622Z,99.99
2017-03-07T01:03:41.597Z,99.99
2017-03-07T01:04:50.565Z,99.99
2017-03-07T01:05:59.542Z,99.99
2017-03-07T01:07:08.527Z,99.99
2017-03-07T01:08:17.805Z,99.99
2017-03-07T01:09:27.002Z,99.99
2017-03-07T01:10:36.084Z,99.87
2017-03-07T01:11:45.482Z,99.97
2017-03-07T01:12:54.536Z,99.99
2017-03-07T01:14:03.901Z,99.99
2017-03-07T01:15:13.287Z,99.99
2017-03-07T01:16:22.367Z,99.99
2017-03-07T01:17:31.378Z,99.99
2017-03-07T01:18:40.370Z,99.99
2017-03-07T01:19:49.619Z,99.99
2017-03-07T01:20:58.600Z,99.99
2017-03-07T01:22:07.617Z,99.99
2017-03-07T01:23:16.601Z,99.99
2017-03-07T01:24:25.594Z,99.99
2017-03-07T01:25:34.890Z,99.99
2017-03-07T01:26:43.893Z,99.99
2017-03-07T01:27:52.875Z,99.99
2017-03-07T01:29:01.859Z,99.99
2017-03-07T01:30:11.252Z,99.99
2017-03-07T01:31:20.621Z,99.99
2017-03-07T01:32:29.606Z,99.99
2017-03-07T01:33:38.637Z,99.99
2017-03-07T01:34:47.667Z,99.99
2017-03-07T01:35:56.648Z,99.99
2017-03-07T01:37:05.944Z,99.99
2017-03-07T01:38:15.014Z,99.99
2017-03-07T01:39:23.983Z,99.99
2017-03-07T01:40:32.962Z,99.99
2017-03-07T01:41:42.046Z,99.99
2017-03-07T01:42:51.280Z,99.99
2017-03-07T01:44:00.289Z,99.99
2017-03-07T01:45:09.348Z,99.99
2017-03-07T01:46:18.748Z,99.99
2017-03-07T01:47:27.739Z,99.99
2017-03-07T01:48:37.020Z,99.99
2017-03-07T01:49:46.004Z,99.99
2017-03-07T01:50:55.012Z,99.99
2017-03-07T01:52:04.007Z,99.99
2017-03-07T01:53:12.986Z,99.99
2017-03-07T01:54:22.286Z,99.99
2017-03-07T01:55:31.274Z,99.99
2017-03-07T01:56:40.254Z,99.99
2017-03-07T01:57:49.325Z,99.99
2017-03-07T01:58:58.330Z,99.99
2017-03-07T02:00:07.577Z,99.99
2017-03-07T02:01:16.635Z,99.99
2017-03-07T02:02:25.611Z,99.99
2017-03-07T02:03:34.588Z,99.99
2017-03-07T02:04:43.575Z,99.99
2017-03-07T02:05:52.934Z,99.99
2017-03-07T02:07:01.904Z,99.99
2017-03-07T02:08:10.965Z,99.99
2017-03-07T02:09:19.945Z,99.99
2017-03-07T02:10:28.936Z,99.99
2017-03-07T02:11:38.155Z,99.99
2017-03-07T02:12:47.548Z,99.99
2017-03-07T02:13:56.539Z,99.99
2017-03-07T02:15:05.523Z,99.99
2017-03-07T02:16:14.504Z,99.99
2017-03-07T02:17:23.735Z,99.99
2017-03-07T02:18:32.711Z,99.99
2017-03-07T02:19:41.708Z,99.99
2017-03-07T02:20:50.690Z,99.99
2017-03-07T02:21:59.750Z,99.99
2017-03-07T02:23:09.023Z,99.99
2017-03-07T02:24:18.007Z,99.99
2017-03-07T02:25:27.062Z,99.99
2017-03-07T02:26:36.482Z,99.99
2017-03-07T02:27:45.457Z,99.99
2017-03-07T02:28:54.732Z,99.99
2017-03-07T02:30:04.147Z,99.99
2017-03-07T02:31:13.142Z,99.99
2017-03-07T02:32:22.125Z,99.99
2017-03-07T02:33:31.101Z,99.99
2017-03-07T02:34:40.395Z,99.99
2017-03-07T02:35:49.375Z,99.99
2017-03-07T02:36:58.353Z,99.99
2017-03-07T02:38:07.326Z,99.99
2017-03-07T02:39:16.318Z,99.99
2017-03-07T02:40:25.559Z,99.99
2017-03-07T02:41:34.628Z,99.99
2017-03-07T02:42:43.704Z,99.91
2017-03-07T02:43:52.769Z,99.99
2017-03-07T02:45:01.749Z,99.99
2017-03-07T02:46:10.968Z,99.99
2017-03-07T02:47:20.040Z,99.99
2017-03-07T02:48:29.017Z,99.99
2017-03-07T02:49:38.012Z,99.99
2017-03-07T02:50:46.983Z,99.99
2017-03-07T02:51:56.259Z,99.99
2017-03-07T02:53:05.319Z,99.99
2017-03-07T02:54:14.404Z,99.99
2017-03-07T02:55:23.793Z,99.99
2017-03-07T02:56:32.772Z,99.99
2017-03-07T02:57:42.071Z,99.87
2017-03-07T02:58:51.055Z,99.96
2017-03-07T03:00:00.044Z,99.99
2017-03-07T03:01:09.039Z,99.99
2017-03-07T03:02:18.022Z,99.99
2017-03-07T03:03:27.267Z,99.99
2017-03-07T03:04:36.329Z,99.99
2017-03-07T03:05:45.321Z,99.99
2017-03-07T03:06:54.310Z,99.96
2017-03-07T03:08:03.302Z,99.96
2017-03-07T03:09:12.596Z,99.99
2017-03-07T03:10:21.592Z,99.96
2017-03-07T03:11:30.595Z,99.99
2017-03-07T03:12:39.595Z,99.99
2017-03-07T03:13:48.761Z,99.99
2017-03-07T03:14:58.079Z,99.99
2017-03-07T03:16:07.152Z,99.99
2017-03-07T03:17:16.135Z,99.99
2017-03-07T03:18:25.202Z,99.99
2017-03-07T03:19:34.167Z,99.99
2017-03-07T03:20:43.445Z,99.99
2017-03-07T03:21:52.420Z,99.99
2017-03-07T03:23:01.400Z,99.99
2017-03-07T03:24:10.406Z,99.99
2017-03-07T03:25:19.383Z,99.99
2017-03-07T03:26:28.665Z,99.99
2017-03-07T03:27:38.069Z,99.99
2017-03-07T03:28:47.044Z,99.99
2017-03-07T03:29:56.113Z,99.99
2017-03-07T03:31:05.102Z,99.99
2017-03-07T03:32:14.469Z,99.99
2017-03-07T03:33:23.438Z,99.99
2017-03-07T03:34:32.420Z,99.99
2017-03-07T03:35:41.416Z,99.99
2017-03-07T03:36:50.526Z,99.99
2017-03-07T03:38:00.223Z,99.99
2017-03-07T03:39:09.193Z,99.72
2017-03-07T03:40:18.158Z,99.72
2017-03-07T03:41:27.125Z,99.99
2017-03-07T03:42:36.099Z,99.91
2017-03-07T03:43:45.485Z,99.99
2017-03-07T03:44:54.955Z,99.99
2017-03-07T03:46:03.969Z,99.99
2017-03-07T03:47:12.940Z,99.72
2017-03-07T03:48:21.907Z,99.99
2017-03-07T03:49:31.140Z,99.99
2017-03-07T03:50:40.114Z,99.99
2017-03-07T03:51:49.172Z,99.99
2017-03-07T03:52:58.201Z,99.99
2017-03-07T03:54:07.288Z,99.99
2017-03-07T03:55:16.581Z,99.99
2017-03-07T03:56:25.552Z,99.99
2017-03-07T03:57:34.542Z,99.99
2017-03-07T03:58:43.510Z,99.99
2017-03-07T03:59:52.487Z,99.99
2017-03-07T04:01:01.719Z,99.99
2017-03-07T04:02:10.691Z,99.99
2017-03-07T04:03:19.674Z,99.99
2017-03-07T04:04:29.146Z,99.99
2017-03-07T04:05:38.128Z,99.99
2017-03-07T04:06:47.418Z,99.99
2017-03-07T04:07:56.474Z,99.99
2017-03-07T04:09:05.457Z,99.99
2017-03-07T04:10:14.470Z,99.72
2017-03-07T04:11:23.443Z,99.99
2017-03-07T04:12:33.064Z,99.99
2017-03-07T04:13:42.049Z,99.99
2017-03-07T04:14:51.036Z,99.99
2017-03-07T04:16:00.001Z,99.99
2017-03-07T04:17:09.097Z,99.99
2017-03-07T04:18:18.317Z,99.99
2017-03-07T04:19:27.300Z,99.99
2017-03-07T04:20:36.274Z,99.99
2017-03-07T04:21:45.247Z,99.99
2017-03-07T04:22:54.227Z,99.99
2017-03-07T04:24:03.497Z,99.99
2017-03-07T04:25:12.482Z,99.99
2017-03-07T04:26:21.630Z,99.99
2017-03-07T04:27:30.612Z,99.99
2017-03-07T04:28:39.597Z,99.99
2017-03-07T04:29:48.881Z,99.99
2017-03-07T04:30:57.873Z,99.99
2017-03-07T04:32:06.844Z,99.99
2017-03-07T04:33:15.829Z,99.99
2017-03-07T04:34:24.800Z,99.99
2017-03-07T04:35:34.166Z,99.99
2017-03-07T04:36:43.638Z,99.99
2017-03-07T04:37:52.646Z,99.99
2017-03-07T04:39:02.040Z,99.99
2017-03-07T04:40:11.014Z,99.99
2017-03-07T04:41:20.311Z,99.99
2017-03-07T04:42:29.286Z,99.86
2017-03-07T04:43:38.258Z,99.99
2017-03-07T04:44:47.239Z,99.99
2017-03-07T04:45:56.206Z,99.99
2017-03-07T04:47:05.431Z,99.99
2017-03-07T04:48:14.412Z,99.99
2017-03-07T04:49:23.401Z,99.99
2017-03-07T04:50:32.808Z,99.99
2017-03-07T04:51:41.801Z,99.99
2017-03-07T04:52:51.023Z,99.99
2017-03-07T04:54:00.018Z,99.99
2017-03-07T04:55:08.986Z,99.99
2017-03-07T04:56:18.055Z,99.99
2017-03-07T04:57:27.021Z,99.99
2017-03-07T04:58:36.249Z,99.99
2017-03-07T04:59:45.215Z,99.99
2017-03-07T05:00:54.205Z,99.99
2017-03-07T05:02:04.088Z,99.99
2017-03-07T05:03:13.076Z,99.99
2017-03-07T05:04:22.376Z,99.99
2017-03-07T05:05:31.456Z,99.99
2017-03-07T05:06:40.456Z,99.99
2017-03-07T05:07:49.430Z,99.99
2017-03-07T05:08:58.482Z,99.99
2017-03-07T05:10:07.807Z,99.99
2017-03-07T05:11:16.791Z,99.99
2017-03-07T05:12:25.762Z,99.99
2017-03-07T05:13:34.733Z,99.99
2017-03-07T05:14:43.795Z,99.99
2017-03-07T05:15:53.177Z,99.99
2017-03-07T05:17:02.150Z,99.99
2017-03-07T05:18:11.141Z,99.99
2017-03-07T05:19:20.124Z,99.99
2017-03-07T05:20:29.094Z,99.99
2017-03-07T05:21:38.057Z,99.99
2017-03-07T05:22:47.025Z,99.99
2017-03-07T05:23:56.016Z,99.99
2017-03-07T05:25:05.024Z,99.99
2017-03-07T05:26:14.249Z,99.99
2017-03-07T05:27:23.251Z,99.99
2017-03-07T05:28:32.351Z,99.99
2017-03-07T05:29:41.403Z,99.99
2017-03-07T05:30:50.385Z,99.99
2017-03-07T05:31:59.615Z,99.99
2017-03-07T05:33:08.607Z,99.99
2017-03-07T05:34:17.595Z,99.99
2017-03-07T05:35:26.585Z,99.99
2017-03-07T05:36:35.565Z,99.99
2017-03-07T05:37:44.814Z,99.99
2017-03-07T05:38:53.790Z,99.99
2017-03-07T05:40:02.775Z,99.99
2017-03-07T05:41:12.159Z,99.99
2017-03-07T05:42:21.148Z,99.99
2017-03-07T05:43:30.387Z,99.99
2017-03-07T05:44:39.385Z,99.99
2017-03-07T05:45:48.364Z,99.99
2017-03-07T05:46:57.338Z,99.99
2017-03-07T05:48:06.436Z,99.99
2017-03-07T05:49:15.659Z,99.99
2017-03-07T05:50:24.637Z,99.99
2017-03-07T05:51:33.619Z,99.99
2017-03-07T05:52:42.609Z,99.99
2017-03-07T05:53:51.589Z,99.99
2017-03-07T05:55:01.260Z,99.99
2017-03-07T05:56:10.230Z,99.99
2017-03-07T05:57:19.223Z,99.99
2017-03-07T05:58:28.199Z,99.99
2017-03-07T05:59:37.255Z,99.99
2017-03-07T06:00:46.494Z,99.99
2017-03-07T06:01:55.478Z,99.99
2017-03-07T06:03:04.454Z,99.99
2017-03-07T06:04:13.429Z,99.99
2017-03-07T06:05:22.484Z,99.99
2017-03-07T06:06:31.717Z,99.99
2017-03-07T06:07:40.778Z,99.99
2017-03-07T06:08:49.753Z,99.99
2017-03-07T06:09:58.728Z,99.99
2017-03-07T06:11:07.699Z,99.99
2017-03-07T06:12:16.932Z,99.99
2017-03-07T06:13:25.899Z,99.99
2017-03-07T06:14:34.880Z,99.99
2017-03-07T06:15:43.940Z,99.99
2017-03-07T06:16:52.948Z,99.99
2017-03-07T06:18:02.241Z,99.99
2017-03-07T06:19:11.237Z,99.99
2017-03-07T06:20:20.212Z,99.99
2017-03-07T06:21:29.203Z,99.99
2017-03-07T06:22:38.170Z,99.99
2017-03-07T06:23:47.473Z,99.99
2017-03-07T06:24:56.451Z,99.99
2017-03-07T06:26:05.436Z,99.99
2017-03-07T06:27:14.427Z,99.99
2017-03-07T06:28:23.506Z,99.99
2017-03-07T06:29:32.759Z,99.99
2017-03-07T06:30:41.731Z,99.99
2017-03-07T06:31:50.729Z,99.99
2017-03-07T06:33:00.205Z,99.99
2017-03-07T06:34:09.188Z,99.99
2017-03-07T06:35:18.419Z,99.99
2017-03-07T06:36:27.499Z,99.99
2017-03-07T06:37:36.466Z,99.99
2017-03-07T06:38:45.455Z,99.99
2017-03-07T06:39:54.424Z,99.99
2017-03-07T06:41:03.688Z,99.99
2017-03-07T06:42:12.748Z,99.99
2017-03-07T06:43:21.821Z,99.99
2017-03-07T06:44:30.794Z,99.99
2017-03-07T06:45:40.188Z,99.99
2017-03-07T06:46:49.515Z,99.99
2017-03-07T06:47:58.597Z,99.99
2017-03-07T06:49:07.586Z,99.99
2017-03-07T06:50:16.561Z,99.99
2017-03-07T06:51:25.536Z,99.99
2017-03-07T06:52:35.358Z,99.99
2017-03-07T06:53:44.416Z,99.99
2017-03-07T06:54:53.386Z,99.99
2017-03-07T06:56:02.378Z,99.99
2017-03-07T06:57:11.382Z,99.99
2017-03-07T06:58:21.089Z,99.99
2017-03-07T06:59:30.077Z,99.99
2017-03-07T07:00:39.077Z,99.99
2017-03-07T07:01:48.058Z,99.99
2017-03-07T07:02:57.031Z,99.99
2017-03-07T07:04:06.313Z,99.99
2017-03-07T07:05:15.287Z,99.99
2017-03-07T07:06:24.270Z,99.99
2017-03-07T07:07:33.239Z,99.99
2017-03-07T07:08:42.207Z,99.99
2017-03-07T07:09:51.447Z,99.99
2017-03-07T07:11:00.426Z,99.99
2017-03-07T07:12:09.413Z,99.99
2017-03-07T07:13:18.395Z,99.99
2017-03-07T07:14:27.387Z,99.99
2017-03-07T07:15:36.682Z,99.99
2017-03-07T07:16:45.664Z,99.99
2017-03-07T07:17:54.652Z,99.99
2017-03-07T07:19:04.039Z,99.99
2017-03-07T07:20:13.024Z,99.99
2017-03-07T07:21:22.302Z,99.99
2017-03-07T07:22:31.287Z,99.99
2017-03-07T07:23:40.272Z,99.99
2017-03-07T07:24:49.245Z,99.99
2017-03-07T07:25:58.246Z,99.99
2017-03-07T07:27:08.375Z,99.99
2017-03-07T07:28:17.564Z,99.99
2017-03-07T07:29:26.678Z,99.99
2017-03-07T07:30:35.678Z,99.99
2017-03-07T07:31:44.876Z,99.99
2017-03-07T07:32:54.858Z,99.99
2017-03-07T07:34:03.886Z,99.99
2017-03-07T07:35:12.873Z,99.99
2017-03-07T07:36:22.056Z,99.99
2017-03-07T07:37:31.076Z,99.99
2017-03-07T07:38:40.449Z,99.99
2017-03-07T07:39:49.521Z,99.99
2017-03-07T07:40:58.606Z,99.99
2017-03-07T07:42:08.016Z,99.99
2017-03-07T07:43:17.099Z,99.99
2017-03-07T07:44:26.419Z,99.99
2017-03-07T07:45:35.688Z,99.99
2017-03-07T07:46:44.675Z,99.99
2017-03-07T07:47:53.708Z,99.99
2017-03-07T07:49:02.694Z,99.99
2017-03-07T07:50:12.061Z,99.99
2017-03-07T07:51:21.417Z,99.99
2017-03-07T07:52:30.477Z,99.99
2017-03-07T07:53:39.568Z,99.99
2017-03-07T07:54:48.561Z,99.99
2017-03-07T07:55:57.818Z,99.99
2017-03-07T07:57:06.889Z,99.99
2017-03-07T07:58:16.010Z,99.99
2017-03-07T07:59:25.200Z,99.99
2017-03-07T08:00:34.275Z,99.99
2017-03-07T08:01:43.522Z,99.99
2017-03-07T08:02:52.579Z,99.99
2017-03-07T08:04:02.247Z,99.99
2017-03-07T08:05:11.234Z,99.99
2017-03-07T08:06:20.318Z,99.99
2017-03-07T08:07:30.373Z,99.99
2017-03-07T08:08:39.370Z,99.99
2017-03-07T08:09:48.455Z,99.99
2017-03-07T08:10:57.467Z,99.99
2017-03-07T08:12:06.438Z,99.99
2017-03-07T08:13:15.680Z,99.99
2017-03-07T08:14:24.657Z,99.99
2017-03-07T08:15:33.642Z,99.99
2017-03-07T08:16:42.704Z,99.99
2017-03-07T08:17:51.777Z,99.99
2017-03-07T08:19:01.046Z,99.99
2017-03-07T08:20:10.031Z,99.99
2017-03-07T08:21:19.028Z,99.99
2017-03-07T08:22:28.007Z,99.99
2017-03-07T08:23:36.988Z,99.99
2017-03-07T08:24:46.285Z,99.99
2017-03-07T08:25:55.270Z,99.99
2017-03-07T08:27:04.258Z,99.99
2017-03-07T08:28:13.344Z,99.99
2017-03-07T08:29:22.609Z,99.99
2017-03-07T08:30:32.270Z,99.99
2017-03-07T08:31:41.411Z,99.99
2017-03-07T08:32:50.542Z,99.99
2017-03-07T08:33:59.521Z,99.99
2017-03-07T08:35:08.547Z,99.99
2017-03-07T08:36:18.337Z,99.99
2017-03-07T08:37:27.471Z,99.99
2017-03-07T08:38:36.476Z,99.99
2017-03-07T08:39:45.625Z,99.99
2017-03-07T08:40:54.683Z,99.99
2017-03-07T08:42:04.374Z,99.99
2017-03-07T08:43:13.682Z,99.99
2017-03-07T08:44:22.844Z,99.99
2017-03-07T08:45:31.848Z,99.99
2017-03-07T08:46:40.828Z,99.99
2017-03-07T08:47:50.115Z,99.99
2017-03-07T08:48:59.092Z,99.99
2017-03-07T08:50:08.238Z,99.99
2017-03-07T08:51:17.693Z,99.99
2017-03-07T08:52:26.843Z,99.99
2017-03-07T08:53:36.323Z,99.99
2017-03-07T08:54:45.368Z,99.99
2017-03-07T08:55:54.484Z,99.99
2017-03-07T08:57:04.266Z,99.99
2017-03-07T08:58:13.374Z,99.99
2017-03-07T08:59:23.019Z,99.99
2017-03-07T09:00:32.229Z,99.99
2017-03-07T09:01:41.364Z,99.99
2017-03-07T09:02:50.395Z,99.99
2017-03-07T09:03:59.632Z,99.99
2017-03-07T09:05:08.876Z,99.99
2017-03-07T09:06:17.873Z,99.99
2017-03-07T09:07:26.944Z,99.99
2017-03-07T09:08:35.925Z,99.99
2017-03-07T09:09:45.307Z,99.99
2017-03-07T09:10:54.585Z,99.99
2017-03-07T09:12:03.702Z,99.99
2017-03-07T09:13:12.687Z,99.99
2017-03-07T09:14:21.782Z,99.99
2017-03-07T09:15:30.856Z,99.99
2017-03-07T09:16:40.133Z,99.99
2017-03-07T09:17:49.187Z,99.99
2017-03-07T09:18:58.207Z,99.99
2017-03-07T09:20:07.207Z,99.99
2017-03-07T09:21:16.227Z,99.99
2017-03-07T09:22:25.457Z,99.99
2017-03-07T09:23:34.437Z,99.99
2017-03-07T09:24:43.409Z,99.99
2017-03-07T09:25:52.839Z,99.99
2017-03-07T09:27:10.039Z,99.99
2017-03-07T09:28:33.433Z,99.82
2017-03-07T09:29:50.799Z,99.49
2017-03-07T09:30:59.790Z,99.96
2017-03-07T09:32:09.173Z,99.77
2017-03-07T09:33:18.525Z,99.3
2017-03-07T09:34:27.922Z,98.44
2017-03-07T09:35:37.027Z,98.54
2017-03-07T09:36:46.219Z,98.82
2017-03-07T09:37:55.210Z,99.77
2017-03-07T09:39:04.447Z,99.99
2017-03-07T09:40:13.418Z,99.68
2017-03-07T09:41:22.402Z,99.96
2017-03-07T09:42:31.548Z,99.99
2017-03-07T09:43:40.535Z,99.68
2017-03-07T09:44:49.773Z,99.77
2017-03-07T09:45:58.765Z,99.68
2017-03-07T09:47:07.750Z,99.96
2017-03-07T09:48:16.840Z,99.68
2017-03-07T09:49:25.847Z,99.96
2017-03-07T09:50:35.137Z,99.99
2017-03-07T09:51:44.209Z,99.99
2017-03-07T09:52:53.202Z,99.99
2017-03-07T09:54:02.189Z,99.99
2017-03-07T09:55:11.174Z,99.99
2017-03-07T09:56:20.833Z,99.99
2017-03-07T09:57:29.891Z,99.99
2017-03-07T09:58:38.859Z,99.99
2017-03-07T09:59:47.869Z,99.99
2017-03-07T10:00:56.853Z,99.99
2017-03-07T10:02:06.503Z,99.99
2017-03-07T10:03:15.494Z,99.99
2017-03-07T10:04:24.559Z,99.99
2017-03-07T10:05:33.531Z,99.99
2017-03-07T10:06:42.503Z,99.99
2017-03-07T10:07:51.720Z,99.99
2017-03-07T10:09:00.691Z,99.99
2017-03-07T10:10:09.670Z,99.99
2017-03-07T10:11:19.093Z,99.99
2017-03-07T10:12:28.471Z,99.99
2017-03-07T10:13:37.716Z,99.99
2017-03-07T10:14:46.699Z,99.99
2017-03-07T10:15:55.679Z,99.99
2017-03-07T10:17:04.677Z,99.73
2017-03-07T10:18:13.744Z,99.91
2017-03-07T10:19:22.969Z,99.99
2017-03-07T10:20:32.043Z,99.99
2017-03-07T10:21:41.045Z,99.99
2017-03-07T10:22:50.023Z,99.99
2017-03-07T10:23:58.992Z,99.99
2017-03-07T10:25:08.302Z,99.99
2017-03-07T10:26:17.283Z,99.99
2017-03-07T10:27:26.264Z,98.97
2017-03-07T10:28:35.252Z,98.97
2017-03-07T10:29:44.243Z,98.87
2017-03-07T10:30:53.540Z,99.91
2017-03-07T10:32:02.528Z,99.99
2017-03-07T10:33:11.512Z,99.99
2017-03-07T10:34:20.578Z,99.99
2017-03-07T10:35:29.583Z,99.99
2017-03-07T10:36:38.958Z,99.99
2017-03-07T10:37:48.034Z,99.99
2017-03-07T10:38:57.022Z,99.99
2017-03-07T10:40:05.999Z,99.99
2017-03-07T10:41:14.983Z,99.99
2017-03-07T10:42:24.694Z,98.68
2017-03-07T10:43:33.663Z,99.91
2017-03-07T10:44:42.656Z,99.16
2017-03-07T10:45:51.721Z,99.35
2017-03-07T10:47:00.704Z,99.82
2017-03-07T10:48:09.986Z,99.82
2017-03-07T10:49:18.958Z,99.16
2017-03-07T10:50:27.973Z,99.73
2017-03-07T10:51:36.948Z,99.99
2017-03-07T10:52:45.946Z,99.99
2017-03-07T10:53:55.168Z,99.99
2017-03-07T10:55:04.229Z,99.99
2017-03-07T10:56:13.292Z,99.91
2017-03-07T10:57:22.283Z,99.99
2017-03-07T10:58:31.276Z,99.99
2017-03-07T10:59:40.656Z,99.99
2017-03-07T11:00:49.635Z,99.99
2017-03-07T11:01:58.617Z,99.99
2017-03-07T11:03:08.024Z,99.99
2017-03-07T11:04:17.106Z,99.99
2017-03-07T11:05:26.453Z,99.99
2017-03-07T11:06:35.453Z,99.99
2017-03-07T11:07:44.439Z,99.99
2017-03-07T11:08:53.419Z,99.99
2017-03-07T11:10:02.612Z,97.97
2017-03-07T11:11:12.022Z,98.26
2017-03-07T11:12:21.010Z,98.83
2017-03-07T11:13:29.996Z,99.02
2017-03-07T11:14:38.976Z,98.54
2017-03-07T11:15:47.970Z,99.68
2017-03-07T11:16:57.269Z,99.87
2017-03-07T11:18:06.269Z,99.99
2017-03-07T11:19:15.254Z,99.99
2017-03-07T11:20:24.317Z,99.99
2017-03-07T11:21:33.311Z,99.99
2017-03-07T11:22:42.616Z,99.99
2017-03-07T11:23:51.720Z,99.99
2017-03-07T11:25:00.783Z,99.99
2017-03-07T11:26:09.776Z,99.77
2017-03-07T11:27:18.780Z,99.99
2017-03-07T11:28:28.004Z,99.3
2017-03-07T11:29:36.989Z,97.78
2017-03-07T11:30:45.976Z,99.02
2017-03-07T11:31:54.976Z,99.58
2017-03-07T11:33:03.989Z,99.49
2017-03-07T11:34:13.217Z,99.99
2017-03-07T11:35:22.211Z,99.99
2017-03-07T11:36:31.381Z,99.99
2017-03-07T11:37:40.353Z,99.99
2017-03-07T11:38:49.327Z,99.99
2017-03-07T11:39:58.565Z,99.21
2017-03-07T11:41:07.585Z,98.54
2017-03-07T11:42:16.574Z,97.5
2017-03-07T11:43:25.545Z,97.41
2017-03-07T11:44:34.518Z,98.45
2017-03-07T11:45:43.754Z,98.73
2017-03-07T11:46:52.741Z,98.16
2017-03-07T11:48:01.714Z,98.07
2017-03-07T11:49:10.715Z,98.64
2017-03-07T11:50:19.695Z,99.3
2017-03-07T11:51:28.968Z,99.68
2017-03-07T11:52:37.962Z,99.4
2017-03-07T11:53:47.031Z,99.4
2017-03-07T11:54:56.035Z,98.83
2017-03-07T11:56:05.097Z,96.74
2017-03-07T11:57:14.348Z,96.36
2017-03-07T11:58:23.324Z,95.7
2017-03-07T11:59:32.303Z,95.51
2017-03-07T12:00:41.278Z,96.17
2017-03-07T12:01:50.261Z,95.6
2017-03-07T12:02:59.513Z,96.5
2017-03-07T12:04:08.485Z,97.64
2017-03-07T12:05:17.459Z,98.3
2017-03-07T12:06:26.545Z,98.83
2017-03-07T12:07:35.539Z,99.06
2017-03-07T12:08:44.782Z,99.77
2017-03-07T12:09:53.857Z,98.73
2017-03-07T12:11:02.854Z,96.93
2017-03-07T12:12:11.829Z,95.98
2017-03-07T12:13:20.831Z,95.65
2017-03-07T12:14:30.103Z,97.55
2017-03-07T12:15:39.124Z,98.68
2017-03-07T12:16:48.502Z,98.97
2017-03-07T12:17:57.480Z,99.21
2017-03-07T12:19:06.459Z,97.02
2017-03-07T12:20:15.696Z,99.11
2017-03-07T12:21:24.673Z,99.26
2017-03-07T12:22:33.653Z,99.49
2017-03-07T12:23:43.204Z,98.64
2017-03-07T12:24:52.190Z,99.11
2017-03-07T12:26:01.416Z,99.77
2017-03-07T12:27:10.393Z,99.99
2017-03-07T12:28:19.385Z,99.99
2017-03-07T12:29:28.390Z,98.92
2017-03-07T12:30:37.358Z,99.3
2017-03-07T12:31:46.600Z,99.87
2017-03-07T12:32:55.594Z,97.97
2017-03-07T12:34:04.677Z,97.78
2017-03-07T12:35:13.649Z,99.21
2017-03-07T12:36:22.620Z,99.87
2017-03-07T12:37:32.012Z,99.99
2017-03-07T12:38:40.997Z,99.97
2017-03-07T12:39:50.080Z,98.21
2017-03-07T12:40:59.478Z,97.78
2017-03-07T12:42:08.577Z,98.45
2017-03-07T12:43:17.870Z,98.35
2017-03-07T12:44:26.843Z,99.49
2017-03-07T12:45:35.840Z,98.59
2017-03-07T12:46:45.020Z,99.07
2017-03-07T12:47:53.997Z,99.07
2017-03-07T12:49:03.245Z,99.35
2017-03-07T12:50:12.220Z,96.12
2017-03-07T12:51:21.492Z,95.94
2017-03-07T12:52:30.576Z,95.6
2017-03-07T12:53:39.673Z,94.84
2017-03-07T12:54:48.902Z,97.22
2017-03-07T12:55:57.988Z,96.08
2017-03-07T12:57:06.965Z,96.45
2017-03-07T12:58:15.970Z,97.12
2017-03-07T12:59:26.312Z,96.93
2017-03-07T13:00:35.664Z,97.12
2017-03-07T13:01:44.678Z,97.6
2017-03-07T13:02:53.659Z,97.97
2017-03-07T13:04:02.640Z,97.41
2017-03-07T13:05:11.618Z,97.41
2017-03-07T13:06:21.126Z,97.31
2017-03-07T13:07:30.517Z,97.78
2017-03-07T13:08:39.593Z,97.88
2017-03-07T13:09:48.719Z,98.21
2017-03-07T13:11:50.405Z,98.59
2017-03-07T13:13:00.181Z,97.07
2017-03-07T13:14:09.307Z,96.03
2017-03-07T13:15:18.457Z,95.65
2017-03-07T13:16:28.667Z,96.93
2017-03-07T13:17:38.220Z,95.89
2017-03-07T13:18:47.392Z,96.26
2017-03-07T13:19:56.534Z,96.55
2017-03-07T13:21:05.665Z,97.69
2017-03-07T13:22:14.644Z,97.12
2017-03-07T13:23:23.886Z,96.93
2017-03-07T13:24:32.886Z,95.6
2017-03-07T13:25:41.873Z,96.55
2017-03-07T13:26:50.845Z,96.45
2017-03-07T13:27:59.829Z,97.02
2017-03-07T13:29:09.139Z,97.6
2017-03-07T13:30:18.118Z,97.27
2017-03-07T13:31:27.400Z,97.17
2017-03-07T13:32:36.536Z,96.79
2017-03-07T13:33:45.513Z,96.22
2017-03-07T13:34:55.245Z,96.5
2017-03-07T13:36:05.107Z,96.74
2017-03-07T13:37:14.171Z,96.69
2017-03-07T13:38:23.264Z,96.22
2017-03-07T13:39:32.413Z,95.75
2017-03-07T13:40:41.706Z,96.17
2017-03-07T13:41:50.780Z,96.6
2017-03-07T13:42:59.911Z,96.12
2017-03-07T13:44:09.122Z,95.08
2017-03-07T13:45:18.281Z,94.27
2017-03-07T13:46:27.933Z,95.65
2017-03-07T13:47:37.212Z,95.79
2017-03-07T13:48:46.330Z,95.6
2017-03-07T13:49:55.503Z,93.51
2017-03-07T13:51:04.604Z,93.51
2017-03-07T13:52:14.284Z,95.79
2017-03-07T13:53:23.267Z,96.26
2017-03-07T13:54:32.269Z,96.64
2017-03-07T13:55:41.532Z,97.07
2017-03-07T13:56:50.547Z,97.6
2017-03-07T13:57:59.853Z,97.17
2017-03-07T13:59:08.834Z,96.03
2017-03-07T14:00:17.968Z,96.31
2017-03-07T14:01:27.103Z,97.27
2017-03-07T14:02:36.880Z,97.83
2017-03-07T14:03:46.282Z,96.03
2017-03-07T14:04:55.466Z,96.31
2017-03-07T14:06:04.449Z,96.79
2017-03-07T14:07:13.438Z,97.17
2017-03-07T14:08:22.838Z,96.22
2017-03-07T14:09:32.067Z,95.75
2017-03-07T14:10:41.047Z,95.17
2017-03-07T14:11:50.036Z,95.17
2017-03-07T14:12:59.062Z,95.94
2017-03-07T14:14:08.043Z,95.94
2017-03-07T14:15:17.338Z,94.89
2017-03-07T14:16:26.324Z,95.17
2017-03-07T14:17:35.392Z,93.84
2017-03-07T14:18:44.374Z,94.03
2017-03-07T14:19:53.439Z,93.46
2017-03-07T14:21:02.776Z,93.75
2017-03-07T14:22:11.766Z,94.89
2017-03-07T14:23:20.761Z,94.98
2017-03-07T14:24:29.836Z,94.51
2017-03-07T14:25:38.825Z,95.55
2017-03-07T14:26:48.234Z,95.94
2017-03-07T14:27:57.324Z,94.89
2017-03-07T14:29:06.351Z,94.89
2017-03-07T14:30:15.364Z,94.13
2017-03-07T14:31:24.425Z,93.84
2017-03-07T14:32:33.763Z,94.51
2017-03-07T14:33:42.851Z,95.08
2017-03-07T14:34:51.919Z,95.65
2017-03-07T14:36:01.027Z,93.84
2017-03-07T14:37:10.030Z,94.23
2017-03-07T14:38:19.271Z,95.17
2017-03-07T14:39:28.315Z,95.75
2017-03-07T14:40:37.397Z,95.84
2017-03-07T14:41:46.771Z,95.46
2017-03-07T14:42:55.756Z,95.75
2017-03-07T14:44:05.458Z,94.79
2017-03-07T14:45:14.663Z,94.89
2017-03-07T14:46:23.764Z,94.98
2017-03-07T14:47:32.795Z,95.17
2017-03-07T14:48:41.911Z,94.7
2017-03-07T14:49:52.007Z,94.03
2017-03-07T14:51:01.146Z,93.84
2017-03-07T14:52:10.168Z,94.79